createdAt,value
2023-03-15T00:02:15.020Z,55.26
2023-03-15T00:04:42.021Z,54.71
2023-03-15T00:07:09.126Z,54.64
2023-03-15T00:09:36.115Z,54.98
2023-03-15T00:12:03.209Z,54.85
2023-03-15T00:14:30.274Z,55.29
2023-03-15T00:16:57.442Z,54.63
2023-03-15T00:19:24.559Z,54.38
2023-03-15T00:21:51.501Z,54.24
2023-03-15T00:24:18.637Z,53.83
2023-03-15T00:26:45.712Z,54.32
2023-03-15T00:29:12.860Z,54.23
2023-03-15T00:31:39.946Z,55.05
2023-03-15T00:34:06.968Z,54.82
2023-03-15T00:36:33.923Z,55.90
2023-03-15T00:39:00.913Z,54.08
2023-03-15T00:41:27.960Z,54.12
2023-03-15T00:43:54.910Z,55.50
2023-03-15T00:46:21.943Z,55.29
2023-03-15T00:48:50.610Z,54.98
2023-03-15T00:51:21.564Z,55.38
2023-03-15T00:53:50.182Z,55.12
2023-03-15T00:56:20.818Z,54.54
2023-03-15T00:58:48.406Z,54.01
2023-03-15T01:01:21.337Z,54.33
2023-03-15T01:03:48.929Z,54.19
2023-03-15T01:06:18.340Z,53.33
2023-03-15T01:08:47.575Z,53.22
2023-03-15T01:11:17.915Z,54.32
2023-03-15T01:13:44.938Z,53.46
2023-03-15T01:16:14.424Z,53.44
2023-03-15T01:18:42.886Z,53.00
2023-03-15T01:21:12.678Z,53.75
2023-03-15T01:23:39.928Z,54.11
2023-03-15T01:26:10.431Z,54.10
2023-03-15T01:28:37.583Z,54.02
2023-03-15T01:31:05.086Z,53.54
2023-03-15T01:33:32.379Z,54.00
2023-03-15T01:36:05.078Z,53.54
2023-03-15T01:38:34.081Z,52.57
2023-03-15T01:41:01.799Z,52.77
2023-03-15T01:43:32.132Z,51.94
2023-03-15T01:45:59.630Z,52.55
2023-03-15T01:48:51.869Z,52.70
2023-03-15T01:51:32.980Z,52.34
2023-03-15T01:54:08.499Z,52.25
2023-03-15T01:56:40.005Z,52.40
2023-03-15T01:59:11.967Z,52.55
2023-03-15T02:01:45.785Z,52.11
2023-03-15T02:04:18.886Z,53.33
2023-03-15T02:06:48.170Z,53.26
2023-03-15T02:09:18.704Z,51.88
2023-03-15T02:11:48.091Z,53.05
2023-03-15T02:14:17.189Z,52.91
2023-03-15T02:16:45.236Z,53.29
2023-03-15T02:19:48.973Z,52.11
2023-03-15T02:22:41.017Z,52.84
2023-03-15T02:25:20.891Z,53.38
2023-03-15T02:27:48.284Z,52.75
2023-03-15T02:30:15.666Z,52.80
2023-03-15T02:32:42.773Z,51.89
2023-03-15T02:35:09.904Z,52.96
2023-03-15T02:37:46.050Z,51.96
2023-03-15T02:40:19.521Z,53.02
2023-03-15T02:42:48.608Z,52.48
2023-03-15T02:45:15.737Z,53.09
2023-03-15T02:47:44.685Z,52.70
2023-03-15T02:50:11.970Z,53.25
2023-03-15T02:52:39.502Z,52.82
2023-03-15T02:55:07.152Z,53.32
2023-03-15T02:57:35.794Z,54.22
2023-03-15T03:00:13.340Z,53.16
2023-03-15T03:02:42.489Z,52.55
2023-03-15T03:05:13.361Z,53.46
2023-03-15T03:07:43.004Z,53.90
2023-03-15T03:10:16.235Z,54.13
2023-03-15T03:12:53.712Z,53.96
2023-03-15T03:15:27.712Z,55.65
2023-03-15T03:17:54.747Z,55.75
2023-03-15T03:20:23.582Z,55.81
2023-03-15T03:22:50.562Z,54.56
2023-03-15T03:25:18.524Z,54.24
2023-03-15T03:27:47.723Z,55.13
2023-03-15T03:30:15.981Z,55.80
2023-03-15T03:32:48.670Z,55.09
2023-03-15T03:35:16.298Z,55.67
2023-03-15T03:37:43.558Z,56.18
2023-03-15T03:40:18.172Z,55.28
2023-03-15T03:42:45.539Z,55.13
2023-03-15T03:45:12.987Z,55.34
2023-03-15T03:47:43.388Z,55.57
2023-03-15T03:50:12.058Z,55.76
2023-03-15T03:52:39.811Z,55.75
2023-03-15T03:55:15.049Z,55.86
2023-03-15T03:57:43.811Z,55.96
2023-03-15T04:00:16.425Z,52.15
2023-03-15T04:02:43.942Z,53.78
2023-03-15T04:05:13.872Z,54.96
2023-03-15T04:07:41.717Z,55.10
2023-03-15T04:10:14.941Z,55.01
2023-03-15T04:12:45.535Z,54.73
2023-03-15T04:15:14.115Z,55.89
2023-03-15T04:17:41.673Z,55.66
2023-03-15T04:20:13.144Z,56.43
2023-03-15T04:22:49.739Z,56.10
2023-03-15T04:25:39.707Z,56.87
2023-03-15T04:28:32.771Z,56.56
2023-03-15T04:31:15.028Z,56.92
2023-03-15T04:33:57.229Z,58.05
2023-03-15T04:37:02.585Z,57.28
2023-03-15T04:39:39.260Z,57.42
2023-03-15T04:42:26.286Z,57.41
2023-03-15T04:45:12.674Z,57.67
2023-03-15T04:47:58.558Z,57.07
2023-03-15T04:50:51.175Z,57.81
2023-03-15T04:53:40.005Z,58.15
2023-03-15T04:56:18.844Z,57.31
2023-03-15T04:59:05.367Z,57.61
2023-03-15T05:01:50.962Z,57.52
2023-03-15T05:04:21.783Z,57.77
2023-03-15T05:06:55.827Z,57.82
2023-03-15T05:09:52.355Z,57.81
2023-03-15T05:12:25.481Z,58.51
2023-03-15T05:15:13.999Z,59.10
2023-03-15T05:17:59.531Z,59.37
2023-03-15T05:20:40.936Z,59.72
2023-03-15T05:23:17.247Z,60.06
2023-03-15T05:26:03.874Z,60.50
2023-03-15T05:28:49.337Z,60.52
2023-03-15T05:31:45.190Z,61.07
2023-03-15T05:34:32.476Z,61.74
2023-03-15T05:37:00.101Z,60.93
2023-03-15T05:39:35.216Z,59.44
2023-03-15T05:42:14.292Z,58.70
2023-03-15T05:45:01.458Z,57.58
2023-03-15T05:47:47.126Z,57.36
2023-03-15T05:50:28.402Z,57.63
2023-03-15T05:53:14.201Z,55.20
2023-03-15T05:56:10.244Z,56.48
2023-03-15T05:58:55.599Z,57.38
2023-03-15T06:01:41.079Z,56.60
2023-03-15T06:04:30.835Z,57.91
2023-03-15T06:06:58.694Z,58.45
2023-03-15T06:09:25.961Z,58.85
2023-03-15T06:11:53.790Z,58.96
2023-03-15T06:14:21.794Z,57.95
2023-03-15T06:16:52.019Z,55.59
2023-03-15T06:19:20.331Z,55.25
2023-03-15T06:21:48.224Z,54.65
2023-03-15T06:24:25.339Z,53.92
2023-03-15T06:26:56.494Z,52.76
2023-03-15T06:29:24.144Z,51.72
2023-03-15T06:31:53.772Z,53.54
2023-03-15T06:34:21.379Z,53.08
2023-03-15T06:36:49.952Z,54.21
2023-03-15T06:39:17.259Z,54.16
2023-03-15T06:41:44.448Z,53.20
2023-03-15T06:44:17.428Z,54.70
2023-03-15T06:46:46.072Z,53.03
2023-03-15T06:49:13.106Z,55.04
2023-03-15T06:51:42.976Z,55.52
2023-03-15T06:54:10.041Z,56.42
2023-03-15T06:56:37.547Z,56.77
2023-03-15T06:59:05.271Z,56.69
2023-03-15T07:01:32.394Z,56.00
2023-03-15T07:03:59.481Z,55.05
2023-03-15T07:06:28.407Z,54.86
2023-03-15T07:08:55.548Z,55.31
2023-03-15T07:11:22.626Z,55.69
2023-03-15T07:13:49.900Z,55.07
2023-03-15T07:16:16.974Z,54.09
2023-03-15T07:18:44.172Z,54.28
2023-03-15T07:21:11.210Z,52.98
2023-03-15T07:23:38.285Z,52.74
2023-03-15T07:26:05.365Z,52.89
2023-03-15T07:28:32.832Z,53.44
2023-03-15T07:31:02.712Z,54.52
2023-03-15T07:33:32.280Z,53.90
2023-03-15T07:36:00.459Z,54.12
2023-03-15T07:38:31.173Z,53.73
2023-03-15T07:40:58.802Z,50.98
2023-03-15T07:43:25.868Z,53.42
2023-03-15T07:46:07.002Z,54.48
2023-03-15T07:48:34.155Z,54.40
2023-03-15T07:51:01.076Z,53.76
2023-03-15T07:53:28.650Z,53.45
2023-03-15T07:55:56.031Z,52.91
2023-03-15T07:58:23.279Z,52.12
2023-03-15T08:00:50.654Z,53.16
2023-03-15T08:03:17.820Z,51.10
2023-03-15T08:05:44.708Z,51.48
2023-03-15T08:08:11.761Z,53.11
2023-03-15T08:10:38.883Z,53.77
2023-03-15T08:13:06.054Z,56.07
2023-03-15T08:15:33.055Z,55.12
2023-03-15T08:18:00.412Z,56.02
2023-03-15T08:20:29.632Z,56.45
2023-03-15T08:22:57.279Z,55.61
2023-03-15T08:25:25.234Z,51.53
2023-03-15T08:27:53.095Z,53.01
2023-03-15T08:30:21.628Z,53.46
2023-03-15T08:32:50.191Z,53.58
2023-03-15T08:35:17.808Z,56.15
2023-03-15T08:37:48.156Z,56.94
2023-03-15T08:40:19.252Z,55.60
2023-03-15T08:42:46.573Z,53.71
2023-03-15T08:45:13.555Z,49.59
2023-03-15T08:47:40.635Z,50.33
2023-03-15T08:50:13.873Z,52.29
2023-03-15T08:52:41.352Z,53.01
2023-03-15T08:55:09.216Z,53.60
2023-03-15T08:57:36.290Z,45.92
2023-03-15T09:00:24.059Z,44.48
2023-03-15T09:02:52.419Z,42.24
2023-03-15T09:05:21.248Z,39.36
2023-03-15T09:07:48.921Z,40.36
2023-03-15T09:10:17.477Z,41.35
2023-03-15T09:12:47.090Z,40.82
2023-03-15T09:15:15.205Z,40.26
2023-03-15T09:17:42.970Z,40.66
2023-03-15T09:20:16.962Z,40.76
2023-03-15T09:22:49.676Z,39.16
2023-03-15T09:25:16.785Z,40.55
2023-03-15T09:27:43.822Z,40.71
2023-03-15T09:30:11.669Z,37.57
2023-03-15T09:32:41.647Z,39.91
2023-03-15T09:35:12.744Z,39.38
2023-03-15T09:37:40.036Z,41.16
2023-03-15T09:40:08.807Z,39.47
2023-03-15T09:43:09.025Z,41.82
2023-03-15T09:46:04.036Z,41.66
2023-03-15T09:48:54.941Z,41.05
2023-03-15T09:51:40.287Z,42.81
2023-03-15T09:54:19.485Z,40.22
2023-03-15T09:56:56.408Z,42.53
2023-03-15T09:59:30.100Z,40.41
2023-03-15T10:02:01.419Z,39.74
2023-03-15T10:04:31.914Z,39.65
2023-03-15T10:07:04.197Z,42.89
2023-03-15T10:09:36.540Z,39.78
2023-03-15T10:12:10.693Z,43.86
2023-03-15T10:14:40.986Z,39.63
2023-03-15T10:17:19.390Z,41.69
2023-03-15T10:19:52.066Z,38.31
2023-03-15T10:22:35.817Z,39.32
2023-03-15T10:25:23.542Z,39.38
2023-03-15T10:28:11.081Z,42.08
2023-03-15T10:30:40.184Z,38.70
2023-03-15T10:33:36.258Z,40.21
2023-03-15T10:36:31.823Z,36.11
2023-03-15T10:38:58.981Z,36.70
2023-03-15T10:41:39.074Z,34.72
2023-03-15T10:44:13.834Z,36.52
2023-03-15T10:46:41.133Z,36.11
2023-03-15T10:49:16.970Z,37.63
2023-03-15T10:51:46.804Z,39.68
2023-03-15T10:54:20.417Z,35.48
2023-03-15T10:56:57.332Z,38.42
2023-03-15T10:59:26.987Z,38.45
2023-03-15T11:02:08.217Z,36.41
2023-03-15T11:04:41.321Z,37.76
2023-03-15T11:07:08.698Z,37.17
2023-03-15T11:09:45.913Z,37.99
2023-03-15T11:12:24.301Z,37.52
2023-03-15T11:15:14.344Z,38.20
2023-03-15T11:17:48.009Z,36.93
2023-03-15T11:20:31.592Z,37.21
2023-03-15T11:23:00.977Z,37.92
2023-03-15T11:25:32.100Z,36.78
2023-03-15T11:28:01.720Z,38.00
2023-03-15T11:30:32.567Z,38.60
2023-03-15T11:33:05.926Z,39.07
2023-03-15T11:35:39.068Z,38.45
2023-03-15T11:38:17.453Z,38.70
2023-03-15T11:40:49.047Z,40.41
2023-03-15T11:43:19.694Z,41.95
2023-03-15T11:46:03.776Z,42.58
2023-03-15T11:48:44.536Z,43.43
2023-03-15T11:51:13.025Z,43.83
2023-03-15T11:53:55.663Z,45.12
2023-03-15T11:56:29.270Z,45.34
2023-03-15T11:59:05.224Z,45.13
2023-03-15T12:01:34.764Z,45.96
2023-03-15T12:04:26.365Z,46.99
2023-03-15T12:07:00.538Z,47.03
2023-03-15T12:09:33.755Z,46.85
2023-03-15T12:12:05.084Z,47.00
2023-03-15T12:14:37.753Z,47.62
2023-03-15T12:17:29.140Z,48.39
2023-03-15T12:20:01.094Z,48.22
2023-03-15T12:22:34.011Z,49.05
2023-03-15T12:25:14.828Z,48.98
2023-03-15T12:27:50.095Z,49.77
2023-03-15T12:30:33.799Z,50.58
2023-03-15T12:33:03.609Z,50.40
2023-03-15T12:35:41.997Z,50.13
2023-03-15T12:38:23.209Z,50.89
2023-03-15T12:40:58.361Z,50.53
2023-03-15T12:43:44.773Z,50.30
2023-03-15T12:46:36.966Z,50.44
2023-03-15T12:49:07.099Z,50.66
2023-03-15T12:52:01.445Z,50.20
2023-03-15T12:54:40.864Z,50.41
2023-03-15T12:57:11.702Z,49.48
2023-03-15T12:59:44.110Z,49.21
2023-03-15T13:02:23.166Z,50.43
2023-03-15T13:05:21.508Z,48.92
2023-03-15T13:08:16.884Z,48.56
2023-03-15T13:11:11.361Z,49.20
2023-03-15T13:14:03.275Z,47.42
2023-03-15T13:16:43.791Z,47.28
2023-03-15T13:19:16.959Z,47.76
2023-03-15T13:22:05.369Z,48.73
2023-03-15T13:25:00.848Z,47.67
2023-03-15T13:27:46.511Z,50.30
2023-03-15T13:30:46.762Z,50.89
2023-03-15T13:33:21.282Z,48.92
2023-03-15T13:36:16.398Z,50.58
2023-03-15T13:38:55.535Z,48.73
2023-03-15T13:41:28.057Z,49.26
2023-03-15T13:43:58.717Z,49.00
2023-03-15T13:46:29.826Z,49.62
2023-03-15T13:48:57.269Z,50.55
2023-03-15T13:51:31.838Z,49.15
2023-03-15T13:54:02.043Z,49.65
2023-03-15T13:56:49.222Z,49.00
2023-03-15T13:59:18.274Z,48.00
2023-03-15T14:01:45.766Z,47.84
2023-03-15T14:04:17.639Z,46.76
2023-03-15T14:06:49.780Z,48.93
2023-03-15T14:09:26.066Z,50.32
2023-03-15T14:12:05.322Z,48.42
2023-03-15T14:14:36.201Z,47.33
2023-03-15T14:17:17.983Z,47.81
2023-03-15T14:19:54.392Z,46.38
2023-03-15T14:22:21.938Z,46.10
2023-03-15T14:24:53.203Z,47.23
2023-03-15T14:27:21.549Z,45.82
2023-03-15T14:30:00.089Z,45.56
2023-03-15T14:32:39.050Z,46.94
2023-03-15T14:35:22.329Z,45.93
2023-03-15T14:38:15.716Z,45.16
2023-03-15T14:40:42.850Z,44.95
2023-03-15T14:43:12.170Z,44.87
2023-03-15T14:45:42.430Z,46.14
2023-03-15T14:48:15.879Z,46.07
2023-03-15T14:50:45.965Z,45.61
2023-03-15T14:53:21.017Z,46.61
2023-03-15T14:55:49.827Z,45.87
2023-03-15T14:58:21.712Z,45.12
2023-03-15T15:00:51.171Z,46.37
2023-03-15T15:03:24.364Z,45.11
2023-03-15T15:05:52.080Z,45.13
2023-03-15T15:08:24.270Z,45.69
2023-03-15T15:10:55.559Z,46.50
2023-03-15T15:13:28.269Z,46.65
2023-03-15T15:15:56.996Z,47.01
2023-03-15T15:18:26.883Z,46.98
2023-03-15T15:20:56.313Z,47.37
2023-03-15T15:23:27.332Z,48.97
2023-03-15T15:26:01.852Z,48.17
2023-03-15T15:28:36.044Z,48.16
2023-03-15T15:31:05.253Z,49.08
2023-03-15T15:33:32.589Z,48.56
2023-03-15T15:36:03.827Z,49.90
2023-03-15T15:38:38.581Z,50.58
2023-03-15T15:41:12.378Z,50.79
2023-03-15T15:43:39.641Z,51.46
2023-03-15T15:46:08.903Z,51.51
2023-03-15T15:48:35.984Z,51.14
2023-03-15T15:51:03.553Z,51.53
2023-03-15T15:53:33.581Z,51.85
2023-03-15T15:56:00.995Z,51.62
2023-03-15T15:58:31.039Z,51.22
2023-03-15T16:00:58.344Z,51.12
2023-03-15T16:03:26.132Z,50.94
2023-03-15T16:05:53.334Z,51.02
2023-03-15T16:08:24.206Z,50.95
2023-03-15T16:10:51.694Z,50.75
2023-03-15T16:13:18.957Z,50.67
2023-03-15T16:15:46.253Z,50.44
2023-03-15T16:18:13.553Z,50.27
2023-03-15T16:20:46.746Z,50.14
2023-03-15T16:23:24.472Z,49.84
2023-03-15T16:25:55.667Z,49.91
2023-03-15T16:28:24.087Z,50.18
2023-03-15T16:30:51.523Z,50.42
2023-03-15T16:33:21.350Z,49.70
2023-03-15T16:35:50.535Z,49.78
2023-03-15T16:38:26.270Z,50.07
2023-03-15T16:40:53.553Z,49.72
2023-03-15T16:43:21.055Z,49.66
2023-03-15T16:45:48.852Z,49.95
2023-03-15T16:48:15.959Z,49.54
2023-03-15T16:50:44.547Z,49.63
2023-03-15T16:53:13.770Z,49.52
2023-03-15T16:55:41.050Z,49.48
2023-03-15T16:58:19.592Z,49.81
2023-03-15T17:00:48.459Z,49.88
2023-03-15T17:03:16.961Z,49.90
2023-03-15T17:05:46.553Z,50.07
2023-03-15T17:08:18.920Z,50.23
2023-03-15T17:10:46.322Z,50.45
2023-03-15T17:13:15.688Z,50.72
2023-03-15T17:15:42.890Z,51.14
2023-03-15T17:18:18.706Z,50.38
2023-03-15T17:20:49.541Z,50.11
2023-03-15T17:23:18.022Z,50.44
2023-03-15T17:25:45.156Z,50.54
2023-03-15T17:28:12.400Z,51.20
2023-03-15T17:30:39.377Z,50.84
2023-03-15T17:33:07.114Z,51.29
2023-03-15T17:35:38.024Z,50.77
2023-03-15T17:38:07.254Z,50.81
2023-03-15T17:40:36.518Z,52.19
2023-03-15T17:43:13.991Z,51.99
2023-03-15T17:45:41.986Z,51.31
2023-03-15T17:48:09.052Z,51.49
2023-03-15T17:50:36.643Z,51.34
2023-03-15T17:53:15.038Z,51.34
2023-03-15T17:55:42.277Z,51.52
2023-03-15T17:58:18.206Z,51.28
2023-03-15T18:00:45.811Z,51.06
2023-03-15T18:03:14.376Z,50.48
2023-03-15T18:05:41.852Z,50.98
2023-03-15T18:08:21.207Z,50.88
2023-03-15T18:10:50.055Z,50.83
2023-03-15T18:13:19.698Z,51.21
2023-03-15T18:15:47.708Z,51.18
2023-03-15T18:18:15.096Z,51.52
2023-03-15T18:20:42.579Z,52.17
2023-03-15T18:23:14.248Z,52.27
2023-03-15T18:25:41.835Z,52.55
2023-03-15T18:28:08.878Z,52.76
2023-03-15T18:30:35.843Z,52.63
2023-03-15T18:33:04.362Z,52.19
2023-03-15T18:35:36.094Z,52.45
2023-03-15T18:38:04.506Z,52.92
2023-03-15T18:40:33.871Z,53.54
2023-03-15T18:43:01.637Z,53.73
2023-03-15T18:45:31.508Z,53.91
2023-03-15T18:48:00.066Z,53.89
2023-03-15T18:50:28.639Z,53.73
2023-03-15T18:52:56.082Z,53.69
2023-03-15T18:55:24.215Z,53.97
2023-03-15T18:57:53.885Z,53.70
2023-03-15T19:00:27.502Z,54.41
2023-03-15T19:02:56.761Z,53.95
2023-03-15T19:05:25.090Z,54.59
2023-03-15T19:07:52.260Z,54.78
2023-03-15T19:10:20.800Z,54.94
2023-03-15T19:12:48.627Z,54.58
2023-03-15T19:15:18.026Z,54.41
2023-03-15T19:17:47.014Z,54.46
2023-03-15T19:20:16.601Z,55.06
2023-03-15T19:22:45.252Z,55.27
2023-03-15T19:25:14.047Z,55.24
2023-03-15T19:27:47.651Z,55.36
2023-03-15T19:30:18.285Z,55.27
2023-03-15T19:32:47.097Z,56.21
2023-03-15T19:35:14.576Z,56.18
2023-03-15T19:37:44.529Z,56.25
2023-03-15T19:40:13.202Z,56.07
2023-03-15T19:42:40.238Z,56.77
2023-03-15T19:45:08.295Z,56.40
2023-03-15T19:47:35.585Z,56.01
2023-03-15T19:50:03.234Z,56.62
2023-03-15T19:52:33.263Z,56.97
2023-03-15T19:55:04.313Z,57.01
2023-03-15T19:57:31.310Z,56.36
2023-03-15T19:59:58.262Z,56.46
2023-03-15T20:02:25.285Z,56.34
2023-03-15T20:04:52.220Z,56.46
2023-03-15T20:07:19.260Z,55.83
2023-03-15T20:09:46.327Z,56.44
2023-03-15T20:12:13.739Z,56.54
2023-03-15T20:14:41.027Z,56.55
2023-03-15T20:17:08.124Z,56.65
2023-03-15T20:19:36.184Z,56.95
2023-03-15T20:22:03.667Z,56.79
2023-03-15T20:24:30.837Z,56.46
2023-03-15T20:26:57.895Z,56.53
2023-03-15T20:29:24.954Z,55.88
2023-03-15T20:31:53.500Z,55.81
2023-03-15T20:34:22.193Z,56.08
2023-03-15T20:36:49.337Z,56.48
2023-03-15T20:39:18.564Z,56.32
2023-03-15T20:41:45.563Z,56.39
2023-03-15T20:44:12.947Z,55.91
2023-03-15T20:46:40.241Z,56.00
2023-03-15T20:49:07.317Z,56.12
2023-03-15T20:51:34.613Z,56.47
2023-03-15T20:54:01.846Z,56.37
2023-03-15T20:56:28.950Z,56.66
2023-03-15T20:58:56.181Z,56.95
2023-03-15T21:01:23.168Z,57.40
2023-03-15T21:03:50.470Z,57.95
2023-03-15T21:06:17.641Z,57.94
2023-03-15T21:08:46.146Z,57.95
2023-03-15T21:11:13.310Z,58.06
2023-03-15T21:13:40.370Z,58.08
2023-03-15T21:16:07.400Z,58.01
2023-03-15T21:18:36.144Z,57.58
2023-03-15T21:21:08.002Z,57.90
2023-03-15T21:23:40.026Z,57.31
2023-03-15T21:26:09.868Z,58.03
2023-03-15T21:28:37.608Z,58.22
2023-03-15T21:31:05.875Z,57.99
2023-03-15T21:33:34.084Z,58.44
2023-03-15T21:36:01.890Z,58.76
2023-03-15T21:38:31.591Z,58.40
2023-03-15T21:40:59.942Z,58.56
2023-03-15T21:43:29.459Z,58.73
2023-03-15T21:46:12.038Z,58.80
2023-03-15T21:48:39.306Z,58.97
2023-03-15T21:51:08.623Z,58.80
2023-03-15T21:53:36.918Z,58.91
2023-03-15T21:56:05.265Z,59.52
2023-03-15T21:58:32.612Z,58.90
2023-03-15T22:01:05.694Z,59.09
2023-03-15T22:03:34.497Z,58.48
2023-03-15T22:06:02.073Z,59.17
2023-03-15T22:08:29.047Z,58.88
2023-03-15T22:10:58.375Z,59.03
2023-03-15T22:13:26.269Z,60.18
2023-03-15T22:15:53.653Z,60.53
2023-03-15T22:18:21.245Z,60.72
2023-03-15T22:20:50.213Z,60.56
2023-03-15T22:23:18.431Z,61.18
2023-03-15T22:25:45.902Z,61.22
2023-03-15T22:28:13.554Z,60.99
2023-03-15T22:30:41.268Z,61.11
2023-03-15T22:33:08.844Z,61.26
2023-03-15T22:35:36.009Z,60.45
2023-03-15T22:38:10.200Z,60.83
2023-03-15T22:40:39.508Z,60.36
2023-03-15T22:43:08.141Z,60.95
2023-03-15T22:45:35.700Z,61.19
2023-03-15T22:48:02.974Z,62.12
2023-03-15T22:50:29.963Z,62.11
2023-03-15T22:52:57.148Z,62.94
2023-03-15T22:55:25.003Z,62.94
2023-03-15T22:57:52.142Z,62.76
2023-03-15T23:00:22.109Z,62.66
2023-03-15T23:02:49.479Z,61.98
2023-03-15T23:05:18.082Z,62.30
2023-03-15T23:07:45.624Z,62.71
2023-03-15T23:10:13.185Z,62.98
2023-03-15T23:12:40.229Z,61.88
2023-03-15T23:15:07.945Z,62.25
2023-03-15T23:17:35.088Z,63.10
2023-03-15T23:20:02.180Z,63.34
2023-03-15T23:22:30.042Z,63.18
2023-03-15T23:24:58.350Z,63.15
2023-03-15T23:27:26.262Z,63.53
2023-03-15T23:29:55.077Z,63.59
2023-03-15T23:32:25.146Z,63.67
2023-03-15T23:34:53.911Z,62.72
2023-03-15T23:37:21.337Z,62.83
2023-03-15T23:39:48.472Z,63.76
2023-03-15T23:42:15.611Z,63.17
2023-03-15T23:44:43.460Z,62.59
2023-03-15T23:47:10.872Z,62.85
2023-03-15T23:49:37.896Z,63.11
2023-03-15T23:52:05.943Z,63.06
2023-03-15T23:54:39.880Z,63.34
2023-03-15T23:57:09.473Z,62.79
2023-03-15T23:59:37.109Z,62.38
